createdAt,value
2022-09-22T00:01:53.300Z,11.90
2022-09-22T00:04:21.380Z,12.00
2022-09-22T00:06:51.431Z,11.90
2022-09-22T00:09:22.037Z,11.90
2022-09-22T00:11:55.786Z,11.90
2022-09-22T00:14:26.427Z,11.80
2022-09-22T00:16:56.613Z,11.90
2022-09-22T00:19:27.068Z,11.90
2022-09-22T00:21:55.254Z,11.80
2022-09-22T00:24:24.452Z,11.80
2022-09-22T00:26:56.603Z,11.80
2022-09-22T00:29:25.742Z,11.80
2022-09-22T00:31:54.854Z,11.70
2022-09-22T00:34:25.261Z,11.80
2022-09-22T00:36:53.642Z,11.70
2022-09-22T00:39:22.091Z,11.70
2022-09-22T00:41:51.938Z,11.70
2022-09-22T00:44:42.871Z,11.70
2022-09-22T00:47:21.976Z,11.60
2022-09-22T00:49:54.814Z,11.60
2022-09-22T00:52:26.494Z,11.60
2022-09-22T00:54:58.222Z,11.60
2022-09-22T00:57:29.260Z,11.60
2022-09-22T00:59:59.358Z,11.60
2022-09-22T01:02:27.554Z,11.60
2022-09-22T01:04:55.667Z,11.50
2022-09-22T01:07:26.579Z,11.50
2022-09-22T01:09:55.624Z,11.50
2022-09-22T01:12:25.383Z,11.50
2022-09-22T01:15:08.579Z,11.50
2022-09-22T01:17:45.973Z,11.40
2022-09-22T01:20:53.730Z,11.40
2022-09-22T01:24:02.578Z,11.40
2022-09-22T01:26:55.274Z,11.40
2022-09-22T01:29:59.196Z,11.40
2022-09-22T01:32:32.142Z,11.40
2022-09-22T01:35:08.363Z,11.40
2022-09-22T01:37:44.937Z,11.30
2022-09-22T01:40:19.015Z,11.30
2022-09-22T01:42:51.124Z,11.30
2022-09-22T01:45:21.474Z,11.20
2022-09-22T01:47:55.735Z,11.20
2022-09-22T01:50:28.962Z,11.20
2022-09-22T01:53:01.604Z,11.20
2022-09-22T01:55:33.419Z,11.20
2022-09-22T01:58:04.726Z,11.10
2022-09-22T02:00:33.190Z,11.10
2022-09-22T02:03:06.934Z,11.10
2022-09-22T02:05:42.905Z,11.00
2022-09-22T02:08:15.095Z,11.00
2022-09-22T02:10:47.302Z,11.00
2022-09-22T02:13:16.183Z,10.90
2022-09-22T02:16:02.984Z,10.90
2022-09-22T02:18:37.403Z,10.90
2022-09-22T02:21:06.463Z,10.90
2022-09-22T02:23:35.346Z,10.90
2022-09-22T02:26:04.508Z,10.90
2022-09-22T02:28:34.527Z,10.90
2022-09-22T02:31:19.552Z,10.80
2022-09-22T02:33:50.880Z,10.80
2022-09-22T02:36:29.667Z,10.80
2022-09-22T02:39:03.086Z,10.80
2022-09-22T02:41:40.174Z,10.80
2022-09-22T02:44:14.469Z,10.70
2022-09-22T02:46:47.213Z,10.70
2022-09-22T02:49:19.436Z,10.70
2022-09-22T02:51:50.390Z,10.70
2022-09-22T02:54:18.784Z,10.70
2022-09-22T02:56:46.936Z,10.60
2022-09-22T02:59:15.114Z,10.70
2022-09-22T03:01:43.241Z,10.70
2022-09-22T03:04:11.595Z,10.70
2022-09-22T03:06:41.075Z,10.70
2022-09-22T03:09:09.216Z,10.70
2022-09-22T03:11:37.275Z,10.70
2022-09-22T03:14:05.428Z,10.60
2022-09-22T03:16:33.532Z,10.60
2022-09-22T03:19:01.580Z,10.60
2022-09-22T03:21:29.683Z,10.60
2022-09-22T03:23:59.223Z,10.60
2022-09-22T03:26:27.544Z,10.60
2022-09-22T03:28:55.712Z,10.60
2022-09-22T03:31:24.026Z,10.60
2022-09-22T03:33:52.926Z,10.60
2022-09-22T03:36:21.461Z,10.60
2022-09-22T03:38:49.804Z,10.50
2022-09-22T03:41:19.313Z,10.50
2022-09-22T03:43:47.626Z,10.50
2022-09-22T03:46:16.066Z,10.50
2022-09-22T03:48:45.331Z,10.50
2022-09-22T03:51:14.018Z,10.50
2022-09-22T03:53:42.425Z,10.50
2022-09-22T03:56:12.170Z,10.40
2022-09-22T03:58:42.205Z,10.40
2022-09-22T04:01:11.262Z,10.40
2022-09-22T04:03:41.010Z,10.40
2022-09-22T04:06:09.488Z,10.40
2022-09-22T04:08:37.986Z,10.40
2022-09-22T04:11:06.950Z,10.40
2022-09-22T04:13:35.461Z,10.40
2022-09-22T04:16:06.468Z,10.30
2022-09-22T04:18:34.662Z,10.30
2022-09-22T04:21:02.816Z,10.40
2022-09-22T04:23:30.923Z,10.30
2022-09-22T04:25:59.090Z,10.30
2022-09-22T04:28:27.334Z,10.30
2022-09-22T04:30:55.644Z,10.20
2022-09-22T04:33:26.189Z,10.20
2022-09-22T04:35:54.331Z,10.20
2022-09-22T04:38:22.804Z,10.20
2022-09-22T04:40:53.333Z,10.20
2022-09-22T04:43:21.418Z,10.20
2022-09-22T04:45:50.756Z,10.20
2022-09-22T04:48:18.861Z,10.10
2022-09-22T04:50:48.492Z,10.10
2022-09-22T04:53:16.905Z,10.10
2022-09-22T04:55:45.132Z,10.00
2022-09-22T04:58:13.957Z,10.00
2022-09-22T05:00:42.150Z,10.00
2022-09-22T05:03:10.733Z,10.00
2022-09-22T05:05:39.118Z,10.00
2022-09-22T05:08:08.878Z,10.00
2022-09-22T05:10:37.269Z,10.00
2022-09-22T05:13:05.778Z,10.00
2022-09-22T05:15:34.749Z,10.00
2022-09-22T05:18:03.073Z,10.00
2022-09-22T05:20:31.614Z,10.00
2022-09-22T05:22:59.739Z,10.00
2022-09-22T05:25:29.267Z,10.00
2022-09-22T05:27:58.087Z,10.00
2022-09-22T05:30:27.866Z,10.00
2022-09-22T05:32:56.203Z,10.00
2022-09-22T05:35:25.967Z,10.00
2022-09-22T05:37:54.646Z,10.00
2022-09-22T05:40:24.227Z,10.00
2022-09-22T05:42:54.867Z,10.00
2022-09-22T05:45:23.766Z,10.00
2022-09-22T05:47:53.282Z,9.90
2022-09-22T05:50:23.802Z,9.90
2022-09-22T05:52:52.559Z,9.90
2022-09-22T05:55:20.773Z,10.00
2022-09-22T05:57:48.968Z,9.90
2022-09-22T06:00:18.867Z,9.90
2022-09-22T06:02:46.990Z,9.90
2022-09-22T06:05:18.692Z,10.00
2022-09-22T06:07:48.987Z,10.00
2022-09-22T06:10:17.240Z,10.00
2022-09-22T06:12:45.374Z,10.00
2022-09-22T06:15:13.455Z,10.00
2022-09-22T06:17:42.906Z,10.00
2022-09-22T06:20:11.349Z,10.00
2022-09-22T06:22:39.462Z,10.10
2022-09-22T06:25:09.281Z,10.10
2022-09-22T06:27:37.562Z,10.20
2022-09-22T06:30:06.538Z,10.20
2022-09-22T06:32:36.732Z,10.20
2022-09-22T06:35:06.936Z,10.30
2022-09-22T06:37:35.958Z,10.40
2022-09-22T06:40:04.323Z,10.40
2022-09-22T06:42:32.433Z,10.40
2022-09-22T06:45:00.745Z,10.50
2022-09-22T06:47:28.826Z,10.50
2022-09-22T06:49:57.000Z,10.60
2022-09-22T06:52:27.239Z,10.70
2022-09-22T06:54:58.815Z,10.70
2022-09-22T06:57:32.682Z,10.80
2022-09-22T07:00:01.830Z,10.90
2022-09-22T07:02:30.546Z,11.00
2022-09-22T07:04:59.075Z,11.00
2022-09-22T07:07:31.988Z,11.10
2022-09-22T07:10:00.185Z,11.20
2022-09-22T07:12:28.778Z,11.30
2022-09-22T07:14:58.039Z,11.30
2022-09-22T07:17:31.827Z,11.40
2022-09-22T07:20:00.023Z,11.50
2022-09-22T07:22:29.529Z,11.50
2022-09-22T07:24:57.614Z,11.60
2022-09-22T07:27:26.291Z,11.70
2022-09-22T07:29:55.096Z,11.70
2022-09-22T07:32:23.200Z,11.80
2022-09-22T07:34:53.667Z,11.90
2022-09-22T07:37:23.550Z,12.00
2022-09-22T07:39:53.041Z,12.10
2022-09-22T07:42:21.078Z,12.20
2022-09-22T07:45:06.586Z,12.30
2022-09-22T07:47:51.976Z,12.40
2022-09-22T07:50:20.069Z,12.50
2022-09-22T07:52:53.017Z,12.60
2022-09-22T07:55:24.953Z,12.70
2022-09-22T07:57:57.186Z,12.80
2022-09-22T08:00:26.286Z,12.80
2022-09-22T08:02:55.979Z,12.90
2022-09-22T08:05:25.568Z,13.00
2022-09-22T08:07:57.195Z,13.10
2022-09-22T08:10:27.355Z,13.20
2022-09-22T08:12:57.790Z,13.20
2022-09-22T08:15:27.522Z,13.30
2022-09-22T08:17:58.170Z,13.40
2022-09-22T08:20:29.176Z,13.50
2022-09-22T08:23:03.026Z,13.60
2022-09-22T08:25:32.750Z,13.70
2022-09-22T08:28:02.563Z,13.80
2022-09-22T08:30:30.835Z,13.90
2022-09-22T08:33:01.416Z,14.00
2022-09-22T08:35:29.816Z,14.10
2022-09-22T08:37:57.943Z,14.20
2022-09-22T08:40:26.140Z,14.30
2022-09-22T08:42:55.919Z,14.30
2022-09-22T08:45:31.435Z,14.50
2022-09-22T08:48:21.910Z,14.50
2022-09-22T08:51:10.593Z,14.60
2022-09-22T08:53:45.966Z,14.70
2022-09-22T08:56:22.076Z,14.90
2022-09-22T08:58:59.669Z,15.00
2022-09-22T09:01:43.834Z,15.10
2022-09-22T09:04:36.175Z,15.10
2022-09-22T09:07:10.308Z,15.30
2022-09-22T09:09:52.256Z,15.40
2022-09-22T09:12:44.445Z,15.50
2022-09-22T09:15:22.862Z,15.60
2022-09-22T09:17:54.478Z,15.70
2022-09-22T09:20:32.386Z,15.80
2022-09-22T09:23:01.831Z,15.90
2022-09-22T09:25:36.748Z,16.00
2022-09-22T09:28:07.944Z,16.10
2022-09-22T09:30:44.729Z,16.20
2022-09-22T09:33:30.104Z,16.30
2022-09-22T09:35:58.920Z,16.30
2022-09-22T09:38:30.153Z,16.50
2022-09-22T09:41:09.276Z,16.50
2022-09-22T09:43:42.809Z,16.60
2022-09-22T09:46:22.215Z,16.70
2022-09-22T09:49:06.020Z,16.80
2022-09-22T09:51:39.821Z,16.90
2022-09-22T09:54:14.449Z,17.00
2022-09-22T09:57:06.325Z,17.10
2022-09-22T09:59:52.580Z,17.20
2022-09-22T10:02:27.354Z,17.20
2022-09-22T10:04:58.667Z,17.30
2022-09-22T10:10:34.062Z,17.50
2022-09-22T10:13:27.353Z,17.50
2022-09-22T10:16:08.659Z,17.60
2022-09-22T10:18:40.757Z,17.60
2022-09-22T10:21:16.370Z,17.70
2022-09-22T10:23:45.505Z,17.80
2022-09-22T10:26:19.841Z,17.80
2022-09-22T10:29:07.908Z,17.90
2022-09-22T10:31:39.046Z,17.90
2022-09-22T10:34:30.216Z,18.00
2022-09-22T10:36:59.651Z,18.00
2022-09-22T10:39:37.090Z,18.00
2022-09-22T10:42:15.127Z,18.10
2022-09-22T10:44:48.611Z,18.10
2022-09-22T10:47:31.198Z,18.10
2022-09-22T10:50:35.706Z,18.20
2022-09-22T10:53:17.691Z,18.20
2022-09-22T10:55:52.958Z,18.20
2022-09-22T10:58:46.884Z,18.30
2022-09-22T11:01:32.649Z,18.30
2022-09-22T11:04:19.754Z,18.30
2022-09-22T11:07:23.245Z,18.40
2022-09-22T11:10:17.990Z,18.40
2022-09-22T11:12:54.627Z,18.50
2022-09-22T11:15:41.740Z,18.40
2022-09-22T11:18:37.600Z,18.40
2022-09-22T11:21:19.567Z,18.50
2022-09-22T11:24:27.258Z,18.50
2022-09-22T11:26:58.800Z,18.50
2022-09-22T11:29:56.776Z,18.60
2022-09-22T11:32:53.602Z,18.50
2022-09-22T11:35:41.407Z,18.60
2022-09-22T11:38:38.222Z,18.60
2022-09-22T11:41:21.651Z,18.60
2022-09-22T11:44:10.939Z,18.60
2022-09-22T11:46:54.836Z,18.60
2022-09-22T11:49:36.154Z,18.60
2022-09-22T11:52:17.698Z,18.60
2022-09-22T11:55:12.597Z,18.60
2022-09-22T11:57:46.949Z,18.60
2022-09-22T12:00:17.636Z,18.60
2022-09-22T12:02:50.966Z,18.60
2022-09-22T12:05:25.026Z,18.60
2022-09-22T12:07:59.238Z,18.60
2022-09-22T12:10:34.399Z,18.60
2022-09-22T12:13:05.282Z,18.60
2022-09-22T12:15:42.426Z,18.60
2022-09-22T12:18:15.677Z,18.60
2022-09-22T12:20:57.571Z,18.70
2022-09-22T12:23:38.308Z,18.60
2022-09-22T12:26:09.280Z,18.70
2022-09-22T12:28:43.324Z,18.60
2022-09-22T12:31:15.533Z,18.60
2022-09-22T12:33:49.880Z,18.60
2022-09-22T12:36:20.250Z,18.60
2022-09-22T12:38:48.579Z,18.60
2022-09-22T12:41:21.380Z,18.60
2022-09-22T12:43:50.884Z,18.60
2022-09-22T12:46:27.916Z,18.60
2022-09-22T12:48:56.248Z,18.60
2022-09-22T12:51:32.785Z,18.50
2022-09-22T12:54:29.773Z,18.50
2022-09-22T12:57:00.273Z,18.50
2022-09-22T13:00:20.750Z,18.50
2022-09-22T13:02:49.907Z,18.50
2022-09-22T13:05:45.566Z,18.50
2022-09-22T13:08:24.176Z,18.40
2022-09-22T13:10:58.220Z,18.50
2022-09-22T13:13:39.799Z,18.50
2022-09-22T13:16:41.550Z,18.40
2022-09-22T13:19:14.827Z,18.40
2022-09-22T13:21:42.906Z,18.40
2022-09-22T13:24:23.655Z,18.40
2022-09-22T13:27:04.717Z,18.40
2022-09-22T13:29:32.832Z,18.40
2022-09-22T13:32:18.506Z,18.40
2022-09-22T13:34:47.002Z,18.40
2022-09-22T13:37:20.255Z,18.40
2022-09-22T13:39:50.480Z,18.30
2022-09-22T13:42:22.248Z,18.30
2022-09-22T13:44:56.811Z,18.30
2022-09-22T13:47:28.063Z,18.30
2022-09-22T13:50:02.795Z,18.30
2022-09-22T13:52:32.925Z,18.20
2022-09-22T13:55:06.335Z,18.30
2022-09-22T13:57:37.804Z,18.20
2022-09-22T14:00:08.368Z,18.30
2022-09-22T14:02:45.630Z,18.30
2022-09-22T14:05:19.348Z,18.30
2022-09-22T14:08:07.890Z,18.40
2022-09-22T14:10:36.489Z,18.40
2022-09-22T14:13:04.588Z,18.40
2022-09-22T14:15:43.508Z,18.50
2022-09-22T14:18:18.994Z,18.50
2022-09-22T14:20:47.642Z,18.60
2022-09-22T14:23:22.867Z,18.60
2022-09-22T14:25:51.066Z,18.60
2022-09-22T14:28:23.222Z,18.70
2022-09-22T14:30:52.074Z,18.80
2022-09-22T14:33:25.638Z,18.80
2022-09-22T14:36:05.505Z,18.90
2022-09-22T14:38:43.092Z,18.90
2022-09-22T14:41:23.553Z,19.00
2022-09-22T14:43:53.051Z,19.10
2022-09-22T14:46:33.622Z,19.20
2022-09-22T14:49:35.785Z,19.30
2022-09-22T14:52:05.140Z,19.30
2022-09-22T14:54:35.048Z,19.40
2022-09-22T14:57:06.609Z,19.50
2022-09-22T14:59:54.845Z,19.50
2022-09-22T15:02:33.369Z,19.50
2022-09-22T15:05:04.623Z,19.60
2022-09-22T15:07:35.997Z,19.60
2022-09-22T15:10:07.478Z,19.60
2022-09-22T15:12:39.027Z,19.60
2022-09-22T15:15:18.853Z,19.60
2022-09-22T15:18:06.126Z,19.60
2022-09-22T15:20:42.693Z,19.60
2022-09-22T15:23:23.106Z,19.50
2022-09-22T15:25:52.189Z,19.50
2022-09-22T15:28:23.742Z,19.50
2022-09-22T15:30:53.066Z,19.40
2022-09-22T15:33:22.148Z,19.30
2022-09-22T15:35:57.506Z,19.30
2022-09-22T15:38:27.911Z,19.20
2022-09-22T15:40:57.395Z,19.20
2022-09-22T15:43:30.799Z,19.20
2022-09-22T15:46:02.266Z,19.10
2022-09-22T15:48:32.991Z,19.10
2022-09-22T15:51:05.602Z,19.10
2022-09-22T15:53:35.127Z,19.00
2022-09-22T15:56:06.361Z,19.00
2022-09-22T15:58:37.319Z,18.90
2022-09-22T16:01:05.803Z,18.90
2022-09-22T16:03:39.056Z,18.90
2022-09-22T16:06:15.143Z,18.90
2022-09-22T16:08:46.155Z,18.80
2022-09-22T16:11:16.774Z,18.80
2022-09-22T16:13:45.511Z,18.80
2022-09-22T16:16:13.715Z,18.80
2022-09-22T16:18:42.089Z,18.80
2022-09-22T16:21:20.518Z,18.70
2022-09-22T16:23:48.835Z,18.70
2022-09-22T16:26:17.432Z,18.70
2022-09-22T16:28:45.495Z,18.70
2022-09-22T16:31:15.699Z,18.60
2022-09-22T16:33:45.232Z,18.60
2022-09-22T16:36:13.354Z,18.60
2022-09-22T16:38:42.775Z,18.50
2022-09-22T16:41:20.079Z,18.50
2022-09-22T16:43:48.387Z,18.50
2022-09-22T16:46:30.097Z,18.50
2022-09-22T16:49:00.438Z,18.50
2022-09-22T16:51:29.349Z,18.40
2022-09-22T16:53:59.032Z,18.40
2022-09-22T16:56:28.731Z,18.30
2022-09-22T16:58:57.772Z,18.30
2022-09-22T17:01:26.178Z,18.30
2022-09-22T17:03:54.438Z,18.30
2022-09-22T17:06:25.287Z,18.20
2022-09-22T17:08:54.203Z,18.20
2022-09-22T17:11:29.442Z,18.20
2022-09-22T17:14:01.418Z,18.10
2022-09-22T17:16:31.360Z,18.10
2022-09-22T17:19:02.382Z,18.00
2022-09-22T17:21:34.021Z,18.00
2022-09-22T17:24:04.879Z,17.90
2022-09-22T17:26:37.128Z,17.90
2022-09-22T17:29:06.128Z,17.80
2022-09-22T17:31:36.013Z,17.80
2022-09-22T17:34:04.552Z,17.70
2022-09-22T17:36:32.754Z,17.60
2022-09-22T17:39:02.322Z,17.60
2022-09-22T17:41:32.936Z,17.50
2022-09-22T17:44:04.518Z,17.50
2022-09-22T17:46:34.520Z,17.40
2022-09-22T17:49:20.508Z,17.30
2022-09-22T17:52:07.441Z,17.20
2022-09-22T17:54:55.238Z,17.10
2022-09-22T17:57:24.668Z,17.10
2022-09-22T17:59:56.366Z,16.90
2022-09-22T18:02:26.107Z,16.90
2022-09-22T18:04:54.654Z,16.80
2022-09-22T18:07:25.559Z,16.80
2022-09-22T18:09:55.456Z,16.70
2022-09-22T18:12:25.668Z,16.60
2022-09-22T18:15:01.135Z,16.60
2022-09-22T18:17:30.369Z,16.50
2022-09-22T18:20:00.083Z,16.50
2022-09-22T18:22:29.798Z,16.40
2022-09-22T18:24:57.914Z,16.30
2022-09-22T18:27:27.163Z,16.30
2022-09-22T18:29:58.757Z,16.30
2022-09-22T18:32:28.436Z,16.20
2022-09-22T18:34:56.916Z,16.20
2022-09-22T18:37:26.329Z,16.20
2022-09-22T18:39:54.867Z,16.30
2022-09-22T18:42:25.327Z,16.50
2022-09-22T18:44:53.517Z,16.70
2022-09-22T18:47:25.067Z,17.00
2022-09-22T18:49:53.183Z,17.30
2022-09-22T18:52:24.966Z,17.40
2022-09-22T18:54:54.758Z,17.50
2022-09-22T18:57:24.676Z,17.40
2022-09-22T18:59:53.987Z,17.30
2022-09-22T19:02:23.647Z,17.20
2022-09-22T19:04:52.352Z,17.00
2022-09-22T19:07:41.850Z,16.90
2022-09-22T19:10:14.090Z,16.70
2022-09-22T19:12:42.675Z,16.60
2022-09-22T19:15:16.803Z,16.40
2022-09-22T19:17:49.241Z,16.30
2022-09-22T19:20:21.008Z,16.20
2022-09-22T19:22:50.419Z,16.10
2022-09-22T19:25:21.657Z,16.00
2022-09-22T19:27:50.138Z,15.90
2022-09-22T19:30:22.510Z,15.80
2022-09-22T19:32:52.934Z,15.70
2022-09-22T19:35:22.049Z,15.60
2022-09-22T19:37:52.043Z,15.50
2022-09-22T19:40:24.317Z,15.40
2022-09-22T19:42:53.131Z,15.30
2022-09-22T19:45:22.281Z,15.20
2022-09-22T19:47:50.384Z,15.20
2022-09-22T19:50:20.280Z,15.10
2022-09-22T19:52:48.564Z,15.00
2022-09-22T19:55:20.902Z,14.90
2022-09-22T19:57:49.912Z,14.90
2022-09-22T20:00:25.740Z,14.80
2022-09-22T20:03:01.119Z,14.80
2022-09-22T20:05:33.652Z,14.70
2022-09-22T20:08:03.716Z,14.70
2022-09-22T20:10:33.019Z,14.60
2022-09-22T20:13:01.569Z,14.60
2022-09-22T20:15:29.799Z,14.50
2022-09-22T20:17:57.995Z,14.40
2022-09-22T20:20:29.657Z,14.40
2022-09-22T20:23:01.074Z,14.40
2022-09-22T20:25:31.499Z,14.30
2022-09-22T20:27:59.723Z,14.30
2022-09-22T20:30:27.807Z,14.20
2022-09-22T20:32:55.899Z,14.20
2022-09-22T20:35:24.231Z,14.20
2022-09-22T20:37:52.331Z,14.10
2022-09-22T20:40:23.249Z,14.10
2022-09-22T20:42:54.197Z,14.00
2022-09-22T20:45:24.955Z,14.00
2022-09-22T20:47:53.246Z,13.90
2022-09-22T20:50:21.356Z,13.90
2022-09-22T20:52:49.466Z,13.90
2022-09-22T20:55:18.175Z,13.80
2022-09-22T20:57:50.128Z,13.80
2022-09-22T21:00:18.073Z,13.80
2022-09-22T21:02:47.443Z,13.70
2022-09-22T21:05:15.620Z,13.70
2022-09-22T21:07:43.683Z,13.70
2022-09-22T21:10:29.289Z,13.60
2022-09-22T21:13:00.489Z,13.60
2022-09-22T21:15:29.945Z,13.60
2022-09-22T21:17:58.513Z,13.60
2022-09-22T21:20:27.083Z,13.50
2022-09-22T21:22:55.728Z,13.50
2022-09-22T21:25:25.040Z,13.50
2022-09-22T21:27:53.363Z,13.50
2022-09-22T21:30:22.828Z,13.50
2022-09-22T21:32:51.341Z,13.40
2022-09-22T21:35:19.402Z,13.40
2022-09-22T21:37:47.403Z,13.30
2022-09-22T21:40:17.521Z,13.30
2022-09-22T21:42:45.656Z,13.30
2022-09-22T21:45:13.807Z,13.30
2022-09-22T21:47:43.220Z,13.30
2022-09-22T21:50:11.486Z,13.20
2022-09-22T21:52:41.488Z,13.20
2022-09-22T21:55:10.283Z,13.10
2022-09-22T21:57:38.359Z,13.10
2022-09-22T22:00:07.918Z,13.10
2022-09-22T22:02:56.935Z,13.00
2022-09-22T22:05:28.202Z,13.00
2022-09-22T22:07:56.262Z,12.90
2022-09-22T22:10:25.029Z,13.00
2022-09-22T22:12:53.166Z,13.00
2022-09-22T22:15:21.231Z,12.90
2022-09-22T22:17:49.326Z,12.90
2022-09-22T22:20:17.556Z,12.90
2022-09-22T22:22:47.022Z,12.80
2022-09-22T22:25:17.348Z,12.90
2022-09-22T22:27:46.968Z,12.80
2022-09-22T22:30:15.234Z,12.80
2022-09-22T22:32:43.309Z,12.80
2022-09-22T22:35:12.381Z,12.70
2022-09-22T22:37:40.476Z,12.70
2022-09-22T22:40:10.769Z,12.70
2022-09-22T22:42:38.945Z,12.70
2022-09-22T22:45:07.661Z,12.70
2022-09-22T22:47:35.761Z,12.60
2022-09-22T22:50:03.846Z,12.60
2022-09-22T22:52:31.931Z,12.60
2022-09-22T22:55:00.050Z,12.60
2022-09-22T22:57:30.399Z,12.60
2022-09-22T22:59:58.550Z,12.60
2022-09-22T23:02:26.678Z,12.60
2022-09-22T23:04:54.738Z,12.50
2022-09-22T23:07:22.857Z,12.50
2022-09-22T23:10:06.081Z,12.50
2022-09-22T23:12:36.249Z,12.50
2022-09-22T23:15:05.124Z,12.40
2022-09-22T23:17:33.447Z,12.40
2022-09-22T23:20:01.596Z,12.40
2022-09-22T23:22:30.612Z,12.40
2022-09-22T23:24:58.990Z,12.30
2022-09-22T23:27:28.399Z,12.30
2022-09-22T23:29:58.309Z,12.30
2022-09-22T23:32:26.518Z,12.30
2022-09-22T23:34:54.702Z,12.30
2022-09-22T23:37:24.943Z,12.30
2022-09-22T23:39:53.378Z,12.30
2022-09-22T23:42:21.753Z,12.20
2022-09-22T23:44:49.834Z,12.20
2022-09-22T23:47:19.537Z,12.20
2022-09-22T23:49:47.644Z,12.20
2022-09-22T23:52:15.804Z,12.10
2022-09-22T23:54:44.685Z,12.10
2022-09-22T23:57:12.780Z,12.10
2022-09-22T23:59:40.872Z,12.10
